Portada
METAR-TAF:

METAR-TAF

Aeroports :

Aeroport Internacional McCarran

Las Vegas, Nevada, Estats Units d'Amèrica

latitud: 36-04-44N, longitud: 115-09-19W, altitud: 663 m

Observació

L'informe es va fer fa 26 minuts, a les 22:56 UTC
Vent calma
Temperatura 14°C
Humitat 18%
Pressió 1023 hPa
Visibilitat: 16.1 km
Cel clar

METAR: KLAS 282256Z 00000KT 10SM CLR 14/M10 A3022 RMK AO2 SLP231 T01441100

Hora: 15:22 (23:22 UTC)

Pronòstic

L'informe es va fer fa 2 hores i 42 minuts, a les 20:40 UTC
Pronòstic vàlid del 28 a les 21 UTC al 29 a les 24 UTC
Vent 6 kt del Est/Nord-Est
Visibilitat: 10 km
Cel clar
A partir de les 29 a les 0200 UTC
Vent 6 kt del Sud-Oest
Visibilitat: 10 km
Cel clar
A partir de les 29 a les 1800 UTC
Vent 5 kt del Nord-Est
Visibilitat: 10 km
Cel clar

TAF: KLAS 282040Z 2821/2924 06006KT P6SM SKC FM290200 23006KT P6SM SKC FM291800 05005KT P6SM SKC

Observacions i pronòstics meteorològics de més de 4000 aeroports (METAR i TAF).

Les estacions disponibles són els punts grocs i vermells al mapa.

Posi el ratolí al punt desitjat per veure el nom de l'estació.

Feu clic per veure les observacions i els pronòstics meteorològics.

Per canviar el mapa: feu clic els botons verds amb una creu de color negre per apropar; al botó verd amb un guió per allunyar la imatge; o en les fletxes verdes per a mapes adjacents.


METAR-TAF: